sensor_id;sensor_type;location;lat;lon;timestamp;P1;durP1;ratioP1;P2;durP2;ratioP2
60704;SDS011;46545;38.014;-7.874;2023-02-01T00:01:22;12.40;;;5.53;;
60704;SDS011;46545;38.014;-7.874;2023-02-01T00:03:23;12.95;;;5.07;;
60704;SDS011;46545;38.014;-7.874;2023-02-01T00:05:23;12.23;;;6.22;;
60704;SDS011;46545;38.014;-7.874;2023-02-01T00:07:24;5.32;;;3.42;;
60704;SDS011;46545;38.014;-7.874;2023-02-01T00:09:24;8.15;;;3.38;;
60704;SDS011;46545;38.014;-7.874;2023-02-01T00:11:25;3.30;;;2.38;;
60704;SDS011;46545;38.014;-7.874;2023-02-01T00:13:27;4.70;;;1.92;;
60704;SDS011;46545;38.014;-7.874;2023-02-01T00:15:27;4.10;;;1.65;;
60704;SDS011;46545;38.014;-7.874;2023-02-01T00:17:28;2.35;;;2.00;;
60704;SDS011;46545;38.014;-7.874;2023-02-01T00:19:28;3.45;;;2.05;;
60704;SDS011;46545;38.014;-7.874;2023-02-01T00:21:29;4.18;;;1.98;;
60704;SDS011;46545;38.014;-7.874;2023-02-01T00:23:36;3.47;;;1.70;;
60704;SDS011;46545;38.014;-7.874;2023-02-01T00:25:37;6.45;;;3.63;;
60704;SDS011;46545;38.014;-7.874;2023-02-01T00:27:37;6.65;;;3.65;;
60704;SDS011;46545;38.014;-7.874;2023-02-01T00:29:38;5.63;;;3.03;;
60704;SDS011;46545;38.014;-7.874;2023-02-01T00:31:38;9.52;;;3.75;;
60704;SDS011;46545;38.014;-7.874;2023-02-01T00:33:39;7.28;;;3.47;;
60704;SDS011;46545;38.014;-7.874;2023-02-01T00:35:39;6.82;;;2.83;;
60704;SDS011;46545;38.014;-7.874;2023-02-01T00:37:40;6.70;;;4.07;;
60704;SDS011;46545;38.014;-7.874;2023-02-01T00:39:40;6.40;;;3.72;;
60704;SDS011;46545;38.014;-7.874;2023-02-01T00:41:41;7.53;;;4.82;;
60704;SDS011;46545;38.014;-7.874;2023-02-01T00:43:41;9.27;;;4.50;;
60704;SDS011;46545;38.014;-7.874;2023-02-01T00:45:42;13.65;;;6.50;;
60704;SDS011;46545;38.014;-7.874;2023-02-01T00:47:42;8.52;;;4.65;;
60704;SDS011;46545;38.014;-7.874;2023-02-01T00:49:43;9.82;;;4.38;;
60704;SDS011;46545;38.014;-7.874;2023-02-01T00:51:43;7.50;;;4.07;;
60704;SDS011;46545;38.014;-7.874;2023-02-01T00:53:44;8.35;;;4.78;;
60704;SDS011;46545;38.014;-7.874;2023-02-01T00:55:45;6.40;;;3.70;;
60704;SDS011;46545;38.014;-7.874;2023-02-01T00:57:46;7.55;;;3.90;;
60704;SDS011;46545;38.014;-7.874;2023-02-01T00:59:46;7.38;;;3.78;;
60704;SDS011;46545;38.014;-7.874;2023-02-01T01:01:47;16.75;;;6.72;;
60704;SDS011;46545;38.014;-7.874;2023-02-01T01:03:48;11.13;;;4.18;;
60704;SDS011;46545;38.014;-7.874;2023-02-01T01:05:50;7.50;;;4.67;;
60704;SDS011;46545;38.014;-7.874;2023-02-01T01:07:51;8.20;;;4.20;;
60704;SDS011;46545;38.014;-7.874;2023-02-01T01:09:51;11.48;;;6.07;;
60704;SDS011;46545;38.014;-7.874;2023-02-01T01:11:52;9.35;;;5.20;;
60704;SDS011;46545;38.014;-7.874;2023-02-01T01:13:53;11.70;;;5.05;;
60704;SDS011;46545;38.014;-7.874;2023-02-01T01:15:54;6.25;;;4.88;;
60704;SDS011;46545;38.014;-7.874;2023-02-01T01:17:54;7.28;;;4.47;;
60704;SDS011;46545;38.014;-7.874;2023-02-01T01:19:55;9.07;;;5.25;;
60704;SDS011;46545;38.014;-7.874;2023-02-01T01:21:55;5.60;;;3.78;;
60704;SDS011;46545;38.014;-7.874;2023-02-01T01:23:56;7.15;;;3.70;;
60704;SDS011;46545;38.014;-7.874;2023-02-01T01:25:56;4.68;;;3.35;;
60704;SDS011;46545;38.014;-7.874;2023-02-01T01:27:57;6.57;;;3.58;;
60704;SDS011;46545;38.014;-7.874;2023-02-01T01:29:57;5.75;;;3.50;;
60704;SDS011;46545;38.014;-7.874;2023-02-01T01:31:58;4.28;;;2.58;;
60704;SDS011;46545;38.014;-7.874;2023-02-01T01:33:59;4.45;;;2.63;;
60704;SDS011;46545;38.014;-7.874;2023-02-01T01:36:00;6.13;;;2.72;;
60704;SDS011;46545;38.014;-7.874;2023-02-01T01:38:00;4.82;;;3.00;;
60704;SDS011;46545;38.014;-7.874;2023-02-01T01:40:02;10.15;;;4.03;;
60704;SDS011;46545;38.014;-7.874;2023-02-01T01:42:03;6.88;;;4.18;;
60704;SDS011;46545;38.014;-7.874;2023-02-01T01:44:05;7.03;;;4.00;;
60704;SDS011;46545;38.014;-7.874;2023-02-01T01:46:06;6.32;;;4.10;;
60704;SDS011;46545;38.014;-7.874;2023-02-01T01:48:08;7.28;;;3.67;;
60704;SDS011;46545;38.014;-7.874;2023-02-01T01:50:13;5.70;;;3.67;;
60704;SDS011;46545;38.014;-7.874;2023-02-01T01:52:14;6.28;;;3.97;;
60704;SDS011;46545;38.014;-7.874;2023-02-01T01:54:21;7.90;;;3.60;;
60704;SDS011;46545;38.014;-7.874;2023-02-01T01:56:25;6.28;;;3.35;;
60704;SDS011;46545;38.014;-7.874;2023-02-01T01:58:27;6.88;;;3.50;;
60704;SDS011;46545;38.014;-7.874;2023-02-01T02:00:29;5.78;;;3.60;;
60704;SDS011;46545;38.014;-7.874;2023-02-01T02:02:30;5.30;;;3.28;;
60704;SDS011;46545;38.014;-7.874;2023-02-01T02:04:32;6.22;;;3.53;;
60704;SDS011;46545;38.014;-7.874;2023-02-01T02:08:36;6.88;;;3.10;;
60704;SDS011;46545;38.014;-7.874;2023-02-01T02:10:41;4.95;;;3.20;;
60704;SDS011;46545;38.014;-7.874;2023-02-01T02:13:00;6.15;;;3.47;;
60704;SDS011;46545;38.014;-7.874;2023-02-01T02:15:01;5.32;;;3.88;;
60704;SDS011;46545;38.014;-7.874;2023-02-01T02:32:35;8.27;;;4.88;;
60704;SDS011;46545;38.014;-7.874;2023-02-01T02:34:44;12.80;;;4.97;;
60704;SDS011;46545;38.014;-7.874;2023-02-01T02:43:41;14.77;;;6.30;;
60704;SDS011;46545;38.014;-7.874;2023-02-01T02:50:43;7.28;;;4.30;;
60704;SDS011;46545;38.014;-7.874;2023-02-01T02:53:14;5.07;;;3.75;;
60704;SDS011;46545;38.014;-7.874;2023-02-01T02:55:34;6.55;;;3.28;;
60704;SDS011;46545;38.014;-7.874;2023-02-01T02:57:38;8.52;;;3.85;;
60704;SDS011;46545;38.014;-7.874;2023-02-01T03:00:00;6.35;;;3.88;;
60704;SDS011;46545;38.014;-7.874;2023-02-01T03:02:20;6.95;;;3.40;;
60704;SDS011;46545;38.014;-7.874;2023-02-01T03:04:40;5.30;;;3.13;;
60704;SDS011;46545;38.014;-7.874;2023-02-01T03:06:44;5.97;;;3.47;;
60704;SDS011;46545;38.014;-7.874;2023-02-01T03:08:45;8.90;;;3.67;;
60704;SDS011;46545;38.014;-7.874;2023-02-01T03:10:57;8.40;;;3.83;;
60704;SDS011;46545;38.014;-7.874;2023-02-01T03:13:09;6.93;;;3.33;;
60704;SDS011;46545;38.014;-7.874;2023-02-01T03:15:11;5.95;;;3.42;;
60704;SDS011;46545;38.014;-7.874;2023-02-01T03:17:15;6.22;;;2.92;;
60704;SDS011;46545;38.014;-7.874;2023-02-01T03:19:19;7.75;;;3.25;;
60704;SDS011;46545;38.014;-7.874;2023-02-01T03:21:30;5.70;;;3.33;;
60704;SDS011;46545;38.014;-7.874;2023-02-01T03:23:33;9.70;;;4.20;;
60704;SDS011;46545;38.014;-7.874;2023-02-01T03:25:34;6.63;;;3.45;;
60704;SDS011;46545;38.014;-7.874;2023-02-01T03:29:40;5.43;;;3.38;;
60704;SDS011;46545;38.014;-7.874;2023-02-01T03:31:42;6.63;;;3.83;;
60704;SDS011;46545;38.014;-7.874;2023-02-01T03:33:42;7.13;;;3.30;;
60704;SDS011;46545;38.014;-7.874;2023-02-01T03:36:00;6.30;;;3.67;;
60704;SDS011;46545;38.014;-7.874;2023-02-01T03:38:07;12.75;;;3.85;;
60704;SDS011;46545;38.014;-7.874;2023-02-01T03:40:12;4.95;;;3.13;;
60704;SDS011;46545;38.014;-7.874;2023-02-01T03:42:17;7.07;;;3.40;;
60704;SDS011;46545;38.014;-7.874;2023-02-01T03:44:24;10.23;;;3.72;;
60704;SDS011;46545;38.014;-7.874;2023-02-01T03:46:29;7.45;;;3.80;;
60704;SDS011;46545;38.014;-7.874;2023-02-01T03:48:33;11.00;;;4.65;;
60704;SDS011;46545;38.014;-7.874;2023-02-01T03:50:36;7.45;;;4.30;;
60704;SDS011;46545;38.014;-7.874;2023-02-01T03:52:44;5.18;;;3.13;;
60704;SDS011;46545;38.014;-7.874;2023-02-01T03:54:48;6.85;;;3.53;;
60704;SDS011;46545;38.014;-7.874;2023-02-01T03:56:49;9.02;;;4.30;;
60704;SDS011;46545;38.014;-7.874;2023-02-01T03:58:51;10.82;;;4.72;;
60704;SDS011;46545;38.014;-7.874;2023-02-01T04:01:06;8.48;;;3.97;;
60704;SDS011;46545;38.014;-7.874;2023-02-01T04:03:10;5.47;;;3.53;;
60704;SDS011;46545;38.014;-7.874;2023-02-01T04:05:11;10.25;;;3.17;;
60704;SDS011;46545;38.014;-7.874;2023-02-01T04:07:16;6.07;;;3.72;;
60704;SDS011;46545;38.014;-7.874;2023-02-01T04:09:17;5.70;;;3.33;;
60704;SDS011;46545;38.014;-7.874;2023-02-01T04:11:18;10.88;;;4.30;;
60704;SDS011;46545;38.014;-7.874;2023-02-01T04:13:18;5.93;;;3.85;;
60704;SDS011;46545;38.014;-7.874;2023-02-01T04:15:19;3.92;;;3.42;;
60704;SDS011;46545;38.014;-7.874;2023-02-01T04:17:19;9.07;;;4.07;;
60704;SDS011;46545;38.014;-7.874;2023-02-01T04:19:19;4.63;;;2.95;;
60704;SDS011;46545;38.014;-7.874;2023-02-01T04:21:20;6.93;;;4.22;;
60704;SDS011;46545;38.014;-7.874;2023-02-01T04:23:20;6.63;;;3.72;;
60704;SDS011;46545;38.014;-7.874;2023-02-01T04:25:21;6.57;;;3.38;;
60704;SDS011;46545;38.014;-7.874;2023-02-01T04:27:21;6.28;;;3.55;;
60704;SDS011;46545;38.014;-7.874;2023-02-01T04:29:22;6.78;;;3.38;;
60704;SDS011;46545;38.014;-7.874;2023-02-01T04:31:22;5.07;;;3.13;;
60704;SDS011;46545;38.014;-7.874;2023-02-01T04:33:25;6.25;;;3.83;;
60704;SDS011;46545;38.014;-7.874;2023-02-01T04:35:25;5.68;;;3.65;;
60704;SDS011;46545;38.014;-7.874;2023-02-01T04:37:26;11.02;;;3.88;;
60704;SDS011;46545;38.014;-7.874;2023-02-01T04:39:26;5.22;;;3.28;;
60704;SDS011;46545;38.014;-7.874;2023-02-01T04:41:27;8.10;;;3.65;;
60704;SDS011;46545;38.014;-7.874;2023-02-01T04:43:27;7.47;;;3.80;;
60704;SDS011;46545;38.014;-7.874;2023-02-01T04:45:28;7.43;;;3.50;;
60704;SDS011;46545;38.014;-7.874;2023-02-01T04:47:28;7.15;;;3.47;;
60704;SDS011;46545;38.014;-7.874;2023-02-01T04:49:28;6.22;;;3.63;;
60704;SDS011;46545;38.014;-7.874;2023-02-01T04:51:29;9.27;;;3.55;;
60704;SDS011;46545;38.014;-7.874;2023-02-01T04:53:30;7.72;;;3.92;;
60704;SDS011;46545;38.014;-7.874;2023-02-01T04:55:30;6.28;;;3.58;;
60704;SDS011;46545;38.014;-7.874;2023-02-01T04:57:31;5.30;;;3.60;;
60704;SDS011;46545;38.014;-7.874;2023-02-01T04:59:31;7.10;;;3.95;;
60704;SDS011;46545;38.014;-7.874;2023-02-01T05:01:32;4.78;;;3.42;;
60704;SDS011;46545;38.014;-7.874;2023-02-01T05:03:33;5.07;;;3.58;;
60704;SDS011;46545;38.014;-7.874;2023-02-01T05:05:33;8.63;;;4.55;;
60704;SDS011;46545;38.014;-7.874;2023-02-01T05:07:34;7.60;;;4.22;;
60704;SDS011;46545;38.014;-7.874;2023-02-01T05:09:34;8.98;;;4.05;;
60704;SDS011;46545;38.014;-7.874;2023-02-01T05:11:35;5.43;;;3.80;;
60704;SDS011;46545;38.014;-7.874;2023-02-01T05:14:01;10.60;;;4.45;;
60704;SDS011;46545;38.014;-7.874;2023-02-01T05:16:02;5.78;;;3.42;;
60704;SDS011;46545;38.014;-7.874;2023-02-01T05:18:02;7.45;;;4.15;;
60704;SDS011;46545;38.014;-7.874;2023-02-01T05:20:03;5.75;;;3.17;;
60704;SDS011;46545;38.014;-7.874;2023-02-01T05:22:03;9.40;;;4.53;;
60704;SDS011;46545;38.014;-7.874;2023-02-01T05:24:04;5.47;;;3.55;;
60704;SDS011;46545;38.014;-7.874;2023-02-01T05:26:10;7.53;;;4.22;;
60704;SDS011;46545;38.014;-7.874;2023-02-01T05:28:11;11.27;;;3.90;;
60704;SDS011;46545;38.014;-7.874;2023-02-01T05:30:11;7.03;;;4.25;;
60704;SDS011;46545;38.014;-7.874;2023-02-01T05:32:12;7.70;;;4.18;;
60704;SDS011;46545;38.014;-7.874;2023-02-01T05:34:12;8.95;;;3.65;;
60704;SDS011;46545;38.014;-7.874;2023-02-01T05:36:13;7.35;;;4.07;;
60704;SDS011;46545;38.014;-7.874;2023-02-01T05:38:14;5.63;;;3.70;;
60704;SDS011;46545;38.014;-7.874;2023-02-01T05:40:14;6.35;;;3.85;;
60704;SDS011;46545;38.014;-7.874;2023-02-01T05:42:15;10.30;;;4.45;;
60704;SDS011;46545;38.014;-7.874;2023-02-01T05:44:15;9.93;;;4.32;;
60704;SDS011;46545;38.014;-7.874;2023-02-01T05:46:16;7.00;;;3.60;;
60704;SDS011;46545;38.014;-7.874;2023-02-01T05:48:16;5.95;;;4.47;;
60704;SDS011;46545;38.014;-7.874;2023-02-01T05:50:17;10.95;;;4.00;;
60704;SDS011;46545;38.014;-7.874;2023-02-01T05:52:17;8.55;;;4.38;;
60704;SDS011;46545;38.014;-7.874;2023-02-01T05:54:19;8.35;;;4.97;;
60704;SDS011;46545;38.014;-7.874;2023-02-01T05:56:19;8.95;;;4.38;;
60704;SDS011;46545;38.014;-7.874;2023-02-01T05:58:20;7.35;;;4.82;;
60704;SDS011;46545;38.014;-7.874;2023-02-01T06:00:21;7.72;;;4.38;;
60704;SDS011;46545;38.014;-7.874;2023-02-01T06:02:21;9.23;;;3.85;;
60704;SDS011;46545;38.014;-7.874;2023-02-01T06:04:24;9.82;;;4.43;;
60704;SDS011;46545;38.014;-7.874;2023-02-01T06:06:24;6.82;;;3.95;;
60704;SDS011;46545;38.014;-7.874;2023-02-01T06:08:25;11.38;;;4.13;;
60704;SDS011;46545;38.014;-7.874;2023-02-01T06:10:25;7.68;;;4.13;;
60704;SDS011;46545;38.014;-7.874;2023-02-01T06:12:26;8.13;;;4.22;;
60704;SDS011;46545;38.014;-7.874;2023-02-01T06:14:28;9.00;;;4.93;;
60704;SDS011;46545;38.014;-7.874;2023-02-01T06:16:29;6.30;;;3.80;;
60704;SDS011;46545;38.014;-7.874;2023-02-01T06:18:30;9.48;;;4.60;;
60704;SDS011;46545;38.014;-7.874;2023-02-01T06:20:30;7.72;;;4.32;;
60704;SDS011;46545;38.014;-7.874;2023-02-01T06:22:31;6.03;;;4.03;;
60704;SDS011;46545;38.014;-7.874;2023-02-01T06:24:31;4.88;;;3.38;;
60704;SDS011;46545;38.014;-7.874;2023-02-01T06:26:32;7.22;;;3.38;;
60704;SDS011;46545;38.014;-7.874;2023-02-01T06:28:33;6.43;;;3.65;;
60704;SDS011;46545;38.014;-7.874;2023-02-01T06:30:34;8.90;;;3.65;;
60704;SDS011;46545;38.014;-7.874;2023-02-01T06:32:34;6.55;;;3.72;;
60704;SDS011;46545;38.014;-7.874;2023-02-01T06:34:35;6.78;;;4.00;;
60704;SDS011;46545;38.014;-7.874;2023-02-01T06:36:37;4.07;;;3.65;;
60704;SDS011;46545;38.014;-7.874;2023-02-01T06:38:38;8.50;;;4.47;;
60704;SDS011;46545;38.014;-7.874;2023-02-01T06:40:39;9.55;;;4.82;;
60704;SDS011;46545;38.014;-7.874;2023-02-01T06:42:39;6.07;;;4.40;;
60704;SDS011;46545;38.014;-7.874;2023-02-01T06:44:40;14.07;;;4.28;;
60704;SDS011;46545;38.014;-7.874;2023-02-01T06:46:41;7.13;;;4.68;;
60704;SDS011;46545;38.014;-7.874;2023-02-01T06:48:41;6.60;;;4.03;;
60704;SDS011;46545;38.014;-7.874;2023-02-01T06:50:42;7.03;;;4.30;;
60704;SDS011;46545;38.014;-7.874;2023-02-01T06:52:42;7.10;;;3.92;;
60704;SDS011;46545;38.014;-7.874;2023-02-01T06:54:42;8.85;;;3.50;;
60704;SDS011;46545;38.014;-7.874;2023-02-01T06:56:43;6.70;;;3.80;;
60704;SDS011;46545;38.014;-7.874;2023-02-01T06:58:43;6.95;;;3.22;;
60704;SDS011;46545;38.014;-7.874;2023-02-01T07:00:44;10.60;;;3.88;;
60704;SDS011;46545;38.014;-7.874;2023-02-01T07:02:44;13.43;;;4.10;;
60704;SDS011;46545;38.014;-7.874;2023-02-01T07:04:45;7.22;;;3.80;;
60704;SDS011;46545;38.014;-7.874;2023-02-01T07:06:45;7.22;;;3.55;;
60704;SDS011;46545;38.014;-7.874;2023-02-01T07:08:46;7.25;;;4.78;;
60704;SDS011;46545;38.014;-7.874;2023-02-01T07:10:46;8.32;;;4.93;;
60704;SDS011;46545;38.014;-7.874;2023-02-01T07:12:47;10.32;;;4.60;;
60704;SDS011;46545;38.014;-7.874;2023-02-01T07:14:47;7.68;;;4.38;;
60704;SDS011;46545;38.014;-7.874;2023-02-01T07:16:47;10.45;;;5.22;;
60704;SDS011;46545;38.014;-7.874;2023-02-01T07:18:49;6.43;;;3.58;;
60704;SDS011;46545;38.014;-7.874;2023-02-01T07:20:50;6.07;;;3.70;;
60704;SDS011;46545;38.014;-7.874;2023-02-01T07:22:56;6.55;;;4.32;;
60704;SDS011;46545;38.014;-7.874;2023-02-01T07:24:57;7.32;;;3.47;;
60704;SDS011;46545;38.014;-7.874;2023-02-01T07:26:57;12.55;;;4.28;;
60704;SDS011;46545;38.014;-7.874;2023-02-01T07:28:58;7.80;;;4.07;;
60704;SDS011;46545;38.014;-7.874;2023-02-01T07:31:09;5.68;;;3.90;;
60704;SDS011;46545;38.014;-7.874;2023-02-01T07:33:09;7.68;;;3.97;;
60704;SDS011;46545;38.014;-7.874;2023-02-01T07:35:10;6.47;;;4.18;;
60704;SDS011;46545;38.014;-7.874;2023-02-01T07:37:11;15.23;;;4.82;;
60704;SDS011;46545;38.014;-7.874;2023-02-01T07:39:11;12.05;;;4.80;;
60704;SDS011;46545;38.014;-7.874;2023-02-01T07:41:12;15.73;;;4.80;;
60704;SDS011;46545;38.014;-7.874;2023-02-01T07:43:12;9.80;;;4.25;;
60704;SDS011;46545;38.014;-7.874;2023-02-01T07:45:13;7.50;;;4.40;;
60704;SDS011;46545;38.014;-7.874;2023-02-01T07:47:14;10.45;;;5.18;;
60704;SDS011;46545;38.014;-7.874;2023-02-01T07:49:14;7.70;;;4.43;;
60704;SDS011;46545;38.014;-7.874;2023-02-01T07:51:15;8.15;;;4.43;;
60704;SDS011;46545;38.014;-7.874;2023-02-01T07:53:16;11.30;;;4.57;;
60704;SDS011;46545;38.014;-7.874;2023-02-01T07:55:16;10.13;;;5.63;;
60704;SDS011;46545;38.014;-7.874;2023-02-01T07:57:17;8.88;;;4.15;;
60704;SDS011;46545;38.014;-7.874;2023-02-01T07:59:17;7.97;;;4.35;;
60704;SDS011;46545;38.014;-7.874;2023-02-01T08:01:20;7.50;;;4.53;;
60704;SDS011;46545;38.014;-7.874;2023-02-01T08:03:20;18.65;;;6.72;;
60704;SDS011;46545;38.014;-7.874;2023-02-01T08:05:21;12.65;;;6.90;;
60704;SDS011;46545;38.014;-7.874;2023-02-01T08:07:21;14.00;;;6.55;;
60704;SDS011;46545;38.014;-7.874;2023-02-01T08:09:22;11.05;;;6.00;;
60704;SDS011;46545;38.014;-7.874;2023-02-01T08:11:23;12.80;;;5.05;;
60704;SDS011;46545;38.014;-7.874;2023-02-01T08:13:23;8.93;;;4.45;;
60704;SDS011;46545;38.014;-7.874;2023-02-01T08:15:24;6.88;;;3.28;;
60704;SDS011;46545;38.014;-7.874;2023-02-01T08:17:24;18.50;;;3.95;;
60704;SDS011;46545;38.014;-7.874;2023-02-01T08:19:26;6.55;;;3.53;;
60704;SDS011;46545;38.014;-7.874;2023-02-01T08:21:27;6.40;;;3.15;;
60704;SDS011;46545;38.014;-7.874;2023-02-01T08:23:37;6.28;;;2.83;;
60704;SDS011;46545;38.014;-7.874;2023-02-01T08:25:37;4.80;;;3.00;;
60704;SDS011;46545;38.014;-7.874;2023-02-01T08:27:38;4.25;;;2.53;;
60704;SDS011;46545;38.014;-7.874;2023-02-01T08:29:39;5.03;;;2.65;;
60704;SDS011;46545;38.014;-7.874;2023-02-01T08:33:02;5.22;;;2.97;;
60704;SDS011;46545;38.014;-7.874;2023-02-01T08:35:03;4.43;;;2.85;;
60704;SDS011;46545;38.014;-7.874;2023-02-01T08:37:04;11.60;;;2.70;;
60704;SDS011;46545;38.014;-7.874;2023-02-01T08:39:04;4.05;;;2.15;;
60704;SDS011;46545;38.014;-7.874;2023-02-01T08:41:10;6.97;;;2.40;;
60704;SDS011;46545;38.014;-7.874;2023-02-01T08:43:11;4.47;;;2.22;;
60704;SDS011;46545;38.014;-7.874;2023-02-01T08:45:11;5.82;;;3.00;;
60704;SDS011;46545;38.014;-7.874;2023-02-01T08:47:12;4.22;;;2.67;;
60704;SDS011;46545;38.014;-7.874;2023-02-01T08:49:12;5.47;;;3.00;;
60704;SDS011;46545;38.014;-7.874;2023-02-01T08:51:13;5.82;;;3.17;;
60704;SDS011;46545;38.014;-7.874;2023-02-01T08:53:14;4.72;;;2.65;;
60704;SDS011;46545;38.014;-7.874;2023-02-01T08:55:15;6.25;;;3.50;;
60704;SDS011;46545;38.014;-7.874;2023-02-01T08:57:16;4.80;;;3.42;;
60704;SDS011;46545;38.014;-7.874;2023-02-01T08:59:17;7.47;;;4.40;;
60704;SDS011;46545;38.014;-7.874;2023-02-01T09:01:17;7.45;;;4.13;;
60704;SDS011;46545;38.014;-7.874;2023-02-01T09:03:18;9.25;;;4.93;;
60704;SDS011;46545;38.014;-7.874;2023-02-01T09:05:18;10.60;;;6.25;;
60704;SDS011;46545;38.014;-7.874;2023-02-01T09:07:22;9.57;;;6.18;;
60704;SDS011;46545;38.014;-7.874;2023-02-01T09:09:23;7.70;;;4.57;;
60704;SDS011;46545;38.014;-7.874;2023-02-01T09:11:23;13.80;;;7.57;;
60704;SDS011;46545;38.014;-7.874;2023-02-01T09:13:24;8.93;;;5.22;;
60704;SDS011;46545;38.014;-7.874;2023-02-01T09:15:24;6.25;;;5.00;;
60704;SDS011;46545;38.014;-7.874;2023-02-01T09:17:25;9.43;;;4.55;;
60704;SDS011;46545;38.014;-7.874;2023-02-01T09:19:26;8.98;;;4.50;;
60704;SDS011;46545;38.014;-7.874;2023-02-01T09:21:26;15.13;;;11.10;;
60704;SDS011;46545;38.014;-7.874;2023-02-01T09:23:27;10.05;;;8.02;;
60704;SDS011;46545;38.014;-7.874;2023-02-01T09:25:27;5.70;;;3.70;;
60704;SDS011;46545;38.014;-7.874;2023-02-01T09:27:28;5.38;;;3.70;;
60704;SDS011;46545;38.014;-7.874;2023-02-01T09:29:29;12.48;;;4.50;;
60704;SDS011;46545;38.014;-7.874;2023-02-01T09:31:29;14.60;;;10.02;;
60704;SDS011;46545;38.014;-7.874;2023-02-01T09:33:30;4.22;;;3.10;;
60704;SDS011;46545;38.014;-7.874;2023-02-01T09:35:31;6.88;;;5.07;;
60704;SDS011;46545;38.014;-7.874;2023-02-01T09:37:31;10.30;;;7.00;;
60704;SDS011;46545;38.014;-7.874;2023-02-01T09:39:33;7.68;;;4.47;;
60704;SDS011;46545;38.014;-7.874;2023-02-01T09:41:36;5.22;;;3.85;;
60704;SDS011;46545;38.014;-7.874;2023-02-01T09:43:43;11.43;;;5.32;;
60704;SDS011;46545;38.014;-7.874;2023-02-01T09:48:17;8.13;;;5.20;;
60704;SDS011;46545;38.014;-7.874;2023-02-01T09:50:19;7.85;;;3.92;;
60704;SDS011;46545;38.014;-7.874;2023-02-01T09:54:49;5.75;;;3.85;;
60704;SDS011;46545;38.014;-7.874;2023-02-01T09:56:54;7.07;;;3.75;;
60704;SDS011;46545;38.014;-7.874;2023-02-01T09:58:59;9.90;;;3.70;;
60704;SDS011;46545;38.014;-7.874;2023-02-01T10:01:02;6.20;;;3.90;;
60704;SDS011;46545;38.014;-7.874;2023-02-01T10:03:03;5.90;;;3.75;;
60704;SDS011;46545;38.014;-7.874;2023-02-01T10:05:04;9.13;;;4.05;;
60704;SDS011;46545;38.014;-7.874;2023-02-01T10:11:53;6.32;;;4.28;;
60704;SDS011;46545;38.014;-7.874;2023-02-01T10:14:03;10.60;;;5.32;;
60704;SDS011;46545;38.014;-7.874;2023-02-01T10:16:17;14.02;;;5.57;;
60704;SDS011;46545;38.014;-7.874;2023-02-01T10:20:36;8.63;;;4.80;;
60704;SDS011;46545;38.014;-7.874;2023-02-01T10:22:41;11.32;;;5.78;;
60704;SDS011;46545;38.014;-7.874;2023-02-01T10:24:46;5.20;;;3.28;;
60704;SDS011;46545;38.014;-7.874;2023-02-01T10:26:51;11.05;;;4.30;;
60704;SDS011;46545;38.014;-7.874;2023-02-01T10:28:58;5.43;;;3.88;;
60704;SDS011;46545;38.014;-7.874;2023-02-01T10:30:59;12.40;;;5.50;;
60704;SDS011;46545;38.014;-7.874;2023-02-01T10:33:23;12.00;;;5.00;;
60704;SDS011;46545;38.014;-7.874;2023-02-01T10:35:28;8.77;;;5.10;;
60704;SDS011;46545;38.014;-7.874;2023-02-01T10:37:31;7.82;;;5.18;;
60704;SDS011;46545;38.014;-7.874;2023-02-01T10:39:32;8.05;;;5.20;;
60704;SDS011;46545;38.014;-7.874;2023-02-01T10:41:33;10.40;;;4.47;;
60704;SDS011;46545;38.014;-7.874;2023-02-01T10:43:34;7.57;;;3.83;;
60704;SDS011;46545;38.014;-7.874;2023-02-01T10:45:35;7.78;;;4.00;;
60704;SDS011;46545;38.014;-7.874;2023-02-01T10:47:38;6.03;;;3.67;;
60704;SDS011;46545;38.014;-7.874;2023-02-01T10:49:41;9.32;;;3.83;;
60704;SDS011;46545;38.014;-7.874;2023-02-01T10:53:53;9.52;;;4.40;;
60704;SDS011;46545;38.014;-7.874;2023-02-01T10:55:54;5.53;;;3.97;;
60704;SDS011;46545;38.014;-7.874;2023-02-01T10:57:56;5.53;;;3.22;;
60704;SDS011;46545;38.014;-7.874;2023-02-01T10:59:56;6.30;;;3.38;;
60704;SDS011;46545;38.014;-7.874;2023-02-01T11:02:00;8.25;;;5.38;;
60704;SDS011;46545;38.014;-7.874;2023-02-01T11:04:03;8.75;;;5.57;;
60704;SDS011;46545;38.014;-7.874;2023-02-01T11:06:18;9.30;;;4.25;;
60704;SDS011;46545;38.014;-7.874;2023-02-01T11:08:19;10.60;;;3.53;;
60704;SDS011;46545;38.014;-7.874;2023-02-01T11:10:39;6.32;;;3.88;;
60704;SDS011;46545;38.014;-7.874;2023-02-01T11:12:40;8.27;;;4.43;;
60704;SDS011;46545;38.014;-7.874;2023-02-01T11:14:41;9.27;;;4.25;;
60704;SDS011;46545;38.014;-7.874;2023-02-01T11:16:41;6.43;;;3.80;;
60704;SDS011;46545;38.014;-7.874;2023-02-01T11:18:46;9.00;;;4.10;;
60704;SDS011;46545;38.014;-7.874;2023-02-01T11:20:52;14.35;;;5.43;;
60704;SDS011;46545;38.014;-7.874;2023-02-01T11:22:55;8.85;;;3.70;;
60704;SDS011;46545;38.014;-7.874;2023-02-01T11:24:57;13.52;;;5.32;;
60704;SDS011;46545;38.014;-7.874;2023-02-01T11:27:00;9.43;;;5.35;;
60704;SDS011;46545;38.014;-7.874;2023-02-01T11:29:05;7.78;;;4.10;;
60704;SDS011;46545;38.014;-7.874;2023-02-01T11:31:12;8.02;;;3.63;;
60704;SDS011;46545;38.014;-7.874;2023-02-01T11:33:15;6.80;;;4.00;;
60704;SDS011;46545;38.014;-7.874;2023-02-01T11:35:18;11.07;;;4.38;;
60704;SDS011;46545;38.014;-7.874;2023-02-01T11:37:20;10.73;;;5.57;;
60704;SDS011;46545;38.014;-7.874;2023-02-01T11:39:26;9.85;;;5.07;;
60704;SDS011;46545;38.014;-7.874;2023-02-01T11:41:27;7.45;;;4.90;;
60704;SDS011;46545;38.014;-7.874;2023-02-01T11:43:28;7.93;;;5.22;;
60704;SDS011;46545;38.014;-7.874;2023-02-01T11:45:29;9.48;;;5.28;;
60704;SDS011;46545;38.014;-7.874;2023-02-01T11:47:31;16.80;;;5.47;;
60704;SDS011;46545;38.014;-7.874;2023-02-01T11:49:38;9.27;;;5.57;;
60704;SDS011;46545;38.014;-7.874;2023-02-01T11:51:49;10.82;;;5.22;;
60704;SDS011;46545;38.014;-7.874;2023-02-01T11:54:14;10.90;;;5.77;;
60704;SDS011;46545;38.014;-7.874;2023-02-01T11:56:38;8.57;;;5.68;;
60704;SDS011;46545;38.014;-7.874;2023-02-01T12:16:49;7.88;;;3.03;;
60704;SDS011;46545;38.014;-7.874;2023-02-01T12:20:28;3.50;;;1.85;;
60704;SDS011;46545;38.014;-7.874;2023-02-01T12:22:37;4.80;;;2.65;;
60704;SDS011;46545;38.014;-7.874;2023-02-01T12:25:41;8.48;;;2.38;;
60704;SDS011;46545;38.014;-7.874;2023-02-01T12:27:16;6.70;;;2.78;;
60704;SDS011;46545;38.014;-7.874;2023-02-01T12:39:23;5.68;;;2.72;;
60704;SDS011;46545;38.014;-7.874;2023-02-01T12:43:18;3.80;;;2.53;;
60704;SDS011;46545;38.014;-7.874;2023-02-01T12:45:33;5.53;;;2.25;;
60704;SDS011;46545;38.014;-7.874;2023-02-01T12:50:03;3.67;;;2.28;;
60704;SDS011;46545;38.014;-7.874;2023-02-01T12:58:49;2.95;;;2.20;;
60704;SDS011;46545;38.014;-7.874;2023-02-01T13:01:00;5.82;;;2.30;;
60704;SDS011;46545;38.014;-7.874;2023-02-01T13:05:22;5.25;;;2.33;;
60704;SDS011;46545;38.014;-7.874;2023-02-01T13:07:57;2.72;;;2.00;;
60704;SDS011;46545;38.014;-7.874;2023-02-01T13:09:55;4.78;;;2.30;;
60704;SDS011;46545;38.014;-7.874;2023-02-01T13:11:58;3.45;;;2.20;;
60704;SDS011;46545;38.014;-7.874;2023-02-01T13:14:16;4.60;;;3.10;;
60704;SDS011;46545;38.014;-7.874;2023-02-01T13:18:49;3.10;;;2.00;;
60704;SDS011;46545;38.014;-7.874;2023-02-01T13:20:55;3.40;;;2.05;;
60704;SDS011;46545;38.014;-7.874;2023-02-01T13:23:00;2.72;;;1.92;;
60704;SDS011;46545;38.014;-7.874;2023-02-01T13:25:03;2.87;;;1.83;;
60704;SDS011;46545;38.014;-7.874;2023-02-01T13:27:04;4.70;;;1.85;;
60704;SDS011;46545;38.014;-7.874;2023-02-01T13:29:05;3.88;;;1.60;;
60704;SDS011;46545;38.014;-7.874;2023-02-01T13:33:32;3.47;;;1.67;;
60704;SDS011;46545;38.014;-7.874;2023-02-01T13:42:31;1.75;;;1.40;;
60704;SDS011;46545;38.014;-7.874;2023-02-01T13:44:38;5.53;;;1.63;;
60704;SDS011;46545;38.014;-7.874;2023-02-01T13:46:43;2.53;;;1.30;;
60704;SDS011;46545;38.014;-7.874;2023-02-01T13:48:51;2.92;;;1.73;;